Messwerte Churchill Falls

Temperatur

Temperatur
°C
1594544400 6.00 6.00 19
1594548000 7.00 7.00
1594551600 8.00 8.00 19
1594555200 9.00 9.00 20
1594558800 10.00 10.00 19
1594562400 11.00 11.00 20
1594566000 12.00 12.00 20
1594569600 13.00 13.00 20
1594573200 14.00 14.00 21
1594576800 15.00 15.00 21
1594580400 16.00 16.00 15
1594584000 17.00 17.00 13
1594587600 18.00 18.00 12
1594591200 19.00 19.00 11
1594594800 20.00 20.00
1594598400 21.00 21.00 10
1594602000 22.00 22.00 10
1594605600 23.00 23.00 10
1594609200 0.00 0.00 10
1594612800 1.00 1.00 10
1594616400 2.00 2.00 10
1594620000 3.00 3.00 10
1594623600 4.00 4.00
1594627200 5.00 5.00 9

Aktuellste Messwerte

Wettercharakter
Wetter: bedeckt
Temperatur
9 °C
Feuchtigkeit
95 %
Wind
20 km/hWindrichtung: Nord
Böen
30 km/h
Luftdruck
1006 hPa
Messzeit: 13. Juli 2020, 5.00Datenquelle: METAR

Weitere Messstationen in der Nähe

Messstation Temperatur Entfernung
Wabush Lake 10 °C 197 km
Schefferville 9 °C 224 km
Goose Bay 7 °C 245 km
Hopedale 5 °C 327 km
Makkovik Airport - 361 km
Havre-Saint-Pierre 16 °C 365 km
Nain 7 °C 367 km

Wind

Windrichtung Böen Mittelwind
° km/h km/h
1594544400 6.00 5.00 - 6.00 160° 10
1594548000 7.00 6.00 - 7.00
1594551600 8.00 7.00 - 8.00 140° 5
1594555200 9.00 8.00 - 9.00 140° 10
1594558800 10.00 9.00 - 10.00 160° 5
1594562400 11.00 10.00 - 11.00 160° 15
1594566000 12.00 11.00 - 12.00 170° 30 15
1594569600 13.00 12.00 - 13.00 190° 15
1594573200 14.00 13.00 - 14.00 190° 30 10
1594576800 15.00 14.00 - 15.00 200° 40 15
1594580400 16.00 15.00 - 16.00 340° 40 20
1594584000 17.00 16.00 - 17.00 360° 40 25
1594587600 18.00 17.00 - 18.00 360° 45 25
1594591200 19.00 18.00 - 19.00 350° 45 25
1594594800 20.00 19.00 - 20.00
1594598400 21.00 20.00 - 21.00 10° 45 20
1594602000 22.00 21.00 - 22.00 10° 30 15
1594605600 23.00 22.00 - 23.00 350° 35 20
1594609200 0.00 23.00 - 0.00 350° 25
1594612800 1.00 0.00 - 1.00 360° 35 20
1594616400 2.00 1.00 - 2.00 10° 35 15
1594620000 3.00 2.00 - 3.00 10° 35 20
1594623600 4.00 3.00 - 4.00
1594627200 5.00 4.00 - 5.00 10° 30 20

Ihre Wetterstation

Fehlt Ihre Wetterstation auf unserem Portal?

Schreiben Sie an network@meteonews.ch

Klima

Wann ist es am wärmsten? Wann regnet es am wenigsten? Unsere Klimadaten geben Auskunft.